DLH765 EDDM-VOBL
Flight info
| Callsign | DLH765 |
|---|---|
| Flight time | N/A |
| Altitude | 23000 |
| Route | KIRDI4N KIRDI DCT BUWOQ DCT OBFEZ/N0481F370 DCT STEIN DCT SIRDU DCT GITAS/N0479F390 DCT BOKSI DCT TEGRI DCT UDROS DCT CRM UM11 REBLO P130 MAMED/N0487F410 B449 RANAH L750 ZB G202 HILAL/N0493F390 G202 RK P628 VIKIT/N0489F410 Z8 ABVUL Z9 UUD L518 HIA Q21 LURGI/N0490F400 Q21 TELUV TELUV7E |
| Aircraft | A359/H-SDE2E3GHIJ3J4J5LM1ORWXY/LB1D1 |
Departure
| Time | N/A |
|---|---|
| Airport | Munich Airport (EDDM) |
Arrival
| Time | 2026-05-07 07:04 |
|---|---|
| Airport | Kempegowda International Airport Bengaluru (VOBL) |
| Time | Latitude | Longitude | Altitude | Speed | Heading |
|---|---|---|---|---|---|
| 2026-05-07 04:17 | 32.40727 | 67.95087 | 40983 ft | 565 kts | 130° |
| 2026-05-07 04:17 | 32.35759 | 68.02309 | 40984 ft | 565 kts | 130° |
| 2026-05-07 04:18 | 32.30761 | 68.09490 | 40988 ft | 565 kts | 131° |
| 2026-05-07 04:18 | 32.25742 | 68.16654 | 40965 ft | 565 kts | 131° |
| 2026-05-07 04:19 | 32.20722 | 68.23803 | 40979 ft | 565 kts | 131° |
| 2026-05-07 04:19 | 32.15707 | 68.30935 | 40976 ft | 565 kts | 131° |
| 2026-05-07 04:20 | 32.10687 | 68.38062 | 40970 ft | 564 kts | 131° |
| 2026-05-07 04:20 | 32.05698 | 68.45133 | 40965 ft | 564 kts | 131° |
| 2026-05-07 04:21 | 31.98162 | 68.55788 | 40963 ft | 564 kts | 131° |
| 2026-05-07 04:21 | 31.93127 | 68.62887 | 40950 ft | 564 kts | 131° |
| 2026-05-07 04:22 | 31.88097 | 68.69971 | 40951 ft | 564 kts | 131° |
| 2026-05-07 04:22 | 31.83058 | 68.77050 | 40930 ft | 564 kts | 131° |
| 2026-05-07 04:23 | 31.78006 | 68.84134 | 40939 ft | 565 kts | 131° |
| 2026-05-07 04:23 | 31.72959 | 68.91202 | 40926 ft | 564 kts | 131° |
| 2026-05-07 04:24 | 31.67898 | 68.98265 | 40928 ft | 564 kts | 131° |
| 2026-05-07 04:24 | 31.63734 | 69.04162 | 40898 ft | 564 kts | 129° |
| 2026-05-07 04:25 | 31.58096 | 69.12601 | 40915 ft | 566 kts | 128° |
| 2026-05-07 04:25 | 31.53258 | 69.19878 | 40931 ft | 566 kts | 128° |
| 2026-05-07 04:26 | 31.48387 | 69.27118 | 40893 ft | 566 kts | 128° |
| 2026-05-07 04:26 | 31.44291 | 69.33166 | 40892 ft | 565 kts | 129° |
| 2026-05-07 04:27 | 31.39340 | 69.40313 | 40889 ft | 566 kts | 134° |
| 2026-05-07 04:27 | 31.36462 | 69.43427 | 40893 ft | 562 kts | 145° |
| 2026-05-07 04:27 | 31.33195 | 69.45896 | 40889 ft | 556 kts | 157° |
| 2026-05-07 04:28 | 31.29649 | 69.47593 | 40896 ft | 548 kts | 169° |
| 2026-05-07 04:28 | 31.26034 | 69.48802 | 40891 ft | 546 kts | 171° |
| 2026-05-07 04:28 | 31.18659 | 69.50876 | 40877 ft | 544 kts | 173° |
| 2026-05-07 04:29 | 31.11263 | 69.52847 | 40914 ft | 545 kts | 173° |
| 2026-05-07 04:29 | 31.03865 | 69.54863 | 40885 ft | 546 kts | 172° |
| 2026-05-07 04:30 | 30.96464 | 69.56917 | 40887 ft | 546 kts | 172° |
| 2026-05-07 04:30 | 30.89061 | 69.58979 | 40882 ft | 547 kts | 172° |
| 2026-05-07 04:31 | 30.81657 | 69.61037 | 40863 ft | 547 kts | 172° |
| 2026-05-07 04:31 | 30.74257 | 69.63089 | 40871 ft | 547 kts | 172° |
| 2026-05-07 04:32 | 30.66851 | 69.65139 | 40860 ft | 547 kts | 172° |
| 2026-05-07 04:32 | 30.59411 | 69.67192 | 40865 ft | 552 kts | 172° |
| 2026-05-07 04:33 | 30.51897 | 69.69264 | 40861 ft | 557 kts | 172° |
| 2026-05-07 04:33 | 30.44390 | 69.71332 | 40849 ft | 560 kts | 172° |
| 2026-05-07 04:34 | 30.36790 | 69.73419 | 40857 ft | 561 kts | 172° |
| 2026-05-07 04:34 | 30.29182 | 69.75508 | 40851 ft | 563 kts | 172° |
| 2026-05-07 04:35 | 30.21555 | 69.77603 | 40843 ft | 563 kts | 172° |
| 2026-05-07 04:35 | 30.13942 | 69.79698 | 40847 ft | 561 kts | 172° |
| 2026-05-07 04:36 | 30.06337 | 69.81774 | 40848 ft | 562 kts | 172° |
| 2026-05-07 04:36 | 29.98713 | 69.83850 | 40835 ft | 563 kts | 173° |
| 2026-05-07 04:37 | 29.91092 | 69.85927 | 40805 ft | 562 kts | 173° |
| 2026-05-07 04:37 | 29.83498 | 69.87991 | 40823 ft | 562 kts | 172° |
| 2026-05-07 04:38 | 29.75870 | 69.90060 | 40810 ft | 563 kts | 172° |
| 2026-05-07 04:38 | 29.68288 | 69.92116 | 40804 ft | 563 kts | 172° |
| 2026-05-07 04:39 | 29.60663 | 69.94183 | 40783 ft | 562 kts | 173° |
| 2026-05-07 04:39 | 29.53060 | 69.96242 | 40793 ft | 562 kts | 172° |
| 2026-05-07 04:40 | 29.45440 | 69.98294 | 40787 ft | 563 kts | 172° |
| 2026-05-07 04:40 | 29.37817 | 70.00344 | 40780 ft | 562 kts | 172° |
| 2026-05-07 04:41 | 29.30213 | 70.02393 | 40774 ft | 561 kts | 172° |
| 2026-05-07 04:41 | 29.22610 | 70.04437 | 40774 ft | 561 kts | 172° |
| 2026-05-07 04:42 | 29.15016 | 70.06473 | 40750 ft | 561 kts | 172° |
| 2026-05-07 04:42 | 29.07422 | 70.08506 | 40760 ft | 560 kts | 172° |
| 2026-05-07 04:43 | 28.99845 | 70.10533 | 40760 ft | 559 kts | 172° |
| 2026-05-07 04:43 | 28.92262 | 70.12557 | 40755 ft | 559 kts | 172° |
| 2026-05-07 04:44 | 28.84684 | 70.14578 | 40746 ft | 559 kts | 172° |
| 2026-05-07 04:44 | 28.77122 | 70.16591 | 40749 ft | 558 kts | 172° |
| 2026-05-07 04:45 | 28.69602 | 70.18590 | 40752 ft | 558 kts | 172° |
| 2026-05-07 04:45 | 28.62042 | 70.20596 | 40735 ft | 558 kts | 172° |
| 2026-05-07 04:46 | 28.54468 | 70.22603 | 40747 ft | 559 kts | 172° |
| 2026-05-07 04:46 | 28.46893 | 70.24614 | 40745 ft | 560 kts | 172° |
| 2026-05-07 04:47 | 28.43167 | 70.25977 | 40742 ft | 566 kts | 161° |
| 2026-05-07 04:47 | 28.39642 | 70.28031 | 40744 ft | 572 kts | 150° |
| 2026-05-07 04:47 | 28.36494 | 70.30806 | 40743 ft | 576 kts | 137° |
| 2026-05-07 04:47 | 28.33875 | 70.34253 | 40734 ft | 577 kts | 124° |
| 2026-05-07 04:48 | 28.30003 | 70.42145 | 40740 ft | 576 kts | 115° |
| 2026-05-07 04:48 | 28.26495 | 70.50391 | 40741 ft | 577 kts | 114° |
| 2026-05-07 04:49 | 28.23021 | 70.58599 | 40743 ft | 577 kts | 114° |
| 2026-05-07 04:49 | 28.19505 | 70.66725 | 40738 ft | 578 kts | 115° |
| 2026-05-07 04:50 | 28.15934 | 70.74878 | 40738 ft | 578 kts | 115° |
| 2026-05-07 04:50 | 28.12354 | 70.83023 | 40737 ft | 577 kts | 115° |
| 2026-05-07 04:51 | 28.08779 | 70.91145 | 40746 ft | 576 kts | 115° |
| 2026-05-07 04:51 | 28.05192 | 70.99288 | 40742 ft | 577 kts | 115° |
| 2026-05-07 04:52 | 28.01603 | 71.07419 | 40744 ft | 577 kts | 115° |
| 2026-05-07 04:52 | 27.98006 | 71.15551 | 40744 ft | 577 kts | 115° |
| 2026-05-07 04:53 | 27.94411 | 71.23664 | 40744 ft | 577 kts | 115° |
| 2026-05-07 04:53 | 27.90809 | 71.31775 | 40746 ft | 576 kts | 115° |
| 2026-05-07 04:54 | 27.87229 | 71.39820 | 40743 ft | 576 kts | 115° |
| 2026-05-07 04:54 | 27.83627 | 71.47901 | 40746 ft | 576 kts | 115° |
| 2026-05-07 04:55 | 27.80019 | 71.55976 | 40762 ft | 576 kts | 115° |
| 2026-05-07 04:55 | 27.76402 | 71.64057 | 40746 ft | 577 kts | 115° |
| 2026-05-07 04:56 | 27.72778 | 71.72140 | 40752 ft | 577 kts | 115° |
| 2026-05-07 04:56 | 27.69151 | 71.80212 | 40751 ft | 576 kts | 116° |
| 2026-05-07 04:57 | 27.65018 | 71.87915 | 40755 ft | 575 kts | 130° |
| 2026-05-07 04:57 | 27.62219 | 71.91114 | 40775 ft | 572 kts | 142° |
| 2026-05-07 04:57 | 27.59003 | 71.93728 | 40760 ft | 569 kts | 149° |
| 2026-05-07 04:58 | 27.52257 | 71.98394 | 40761 ft | 569 kts | 153° |
| 2026-05-07 04:58 | 27.45397 | 72.02866 | 40754 ft | 569 kts | 153° |
| 2026-05-07 04:59 | 27.38598 | 72.07320 | 40762 ft | 568 kts | 153° |
| 2026-05-07 04:59 | 27.31784 | 72.11832 | 40766 ft | 568 kts | 153° |
| 2026-05-07 05:00 | 27.24980 | 72.16353 | 40767 ft | 568 kts | 153° |
| 2026-05-07 05:00 | 27.18169 | 72.20874 | 40770 ft | 568 kts | 153° |
| 2026-05-07 05:01 | 27.11351 | 72.25391 | 40769 ft | 568 kts | 153° |
| 2026-05-07 05:01 | 27.04535 | 72.29898 | 40774 ft | 569 kts | 153° |
| 2026-05-07 05:02 | 26.97752 | 72.34377 | 40772 ft | 569 kts | 153° |
| 2026-05-07 05:02 | 26.90931 | 72.38875 | 40773 ft | 568 kts | 153° |
| 2026-05-07 05:03 | 26.84135 | 72.43351 | 40780 ft | 566 kts | 153° |
| 2026-05-07 05:03 | 26.77348 | 72.47813 | 40781 ft | 566 kts | 153° |
| 2026-05-07 05:04 | 26.70562 | 72.52268 | 40787 ft | 566 kts | 153° |
| 2026-05-07 05:04 | 26.63777 | 72.56717 | 40781 ft | 565 kts | 153° |
| 2026-05-07 05:05 | 26.57002 | 72.61153 | 40803 ft | 564 kts | 153° |
| 2026-05-07 05:05 | 26.50222 | 72.65585 | 40790 ft | 564 kts | 153° |
| 2026-05-07 05:06 | 26.43446 | 72.70010 | 40794 ft | 564 kts | 153° |
| 2026-05-07 05:06 | 26.36673 | 72.74427 | 40795 ft | 563 kts | 153° |
| 2026-05-07 05:07 | 26.29921 | 72.78824 | 40794 ft | 562 kts | 153° |
| 2026-05-07 05:07 | 26.23212 | 72.83187 | 40799 ft | 561 kts | 153° |
| 2026-05-07 05:08 | 26.16464 | 72.87568 | 40808 ft | 561 kts | 153° |
| 2026-05-07 05:08 | 26.09714 | 72.91946 | 40811 ft | 560 kts | 153° |
| 2026-05-07 05:09 | 26.02988 | 72.96302 | 40822 ft | 560 kts | 153° |
| 2026-05-07 05:09 | 25.96254 | 73.00658 | 40817 ft | 560 kts | 153° |
| 2026-05-07 05:10 | 25.89541 | 73.05063 | 40822 ft | 560 kts | 153° |
| 2026-05-07 05:10 | 25.82858 | 73.09505 | 40822 ft | 560 kts | 153° |
| 2026-05-07 05:11 | 25.76175 | 73.13937 | 40820 ft | 558 kts | 153° |
| 2026-05-07 05:11 | 25.69504 | 73.18342 | 40827 ft | 558 kts | 153° |
| 2026-05-07 05:12 | 25.63956 | 73.21997 | 40831 ft | 558 kts | 153° |
| 2026-05-07 05:12 | 25.56196 | 73.27102 | 40825 ft | 557 kts | 153° |
| 2026-05-07 05:13 | 25.49539 | 73.31477 | 40849 ft | 555 kts | 153° |
| 2026-05-07 05:13 | 25.42895 | 73.35837 | 40843 ft | 555 kts | 153° |
| 2026-05-07 05:14 | 25.36258 | 73.40210 | 40855 ft | 555 kts | 153° |
| 2026-05-07 05:14 | 25.30751 | 73.43863 | 40844 ft | 555 kts | 153° |
| 2026-05-07 05:15 | 25.24136 | 73.48250 | 40868 ft | 554 kts | 153° |
| 2026-05-07 05:15 | 25.17531 | 73.52617 | 40881 ft | 553 kts | 153° |
| 2026-05-07 05:16 | 25.10925 | 73.56976 | 40884 ft | 553 kts | 153° |
| 2026-05-07 05:16 | 25.04324 | 73.61326 | 40896 ft | 553 kts | 153° |
| 2026-05-07 05:17 | 24.97722 | 73.65672 | 40912 ft | 551 kts | 153° |
| 2026-05-07 05:17 | 24.91141 | 73.69998 | 40901 ft | 551 kts | 153° |
| 2026-05-07 05:18 | 24.84545 | 73.74328 | 40905 ft | 551 kts | 153° |
| 2026-05-07 05:18 | 24.77963 | 73.78644 | 40901 ft | 551 kts | 153° |
| 2026-05-07 05:19 | 24.71414 | 73.82915 | 40908 ft | 550 kts | 153° |
| 2026-05-07 05:19 | 24.64860 | 73.87235 | 40908 ft | 550 kts | 149° |
| 2026-05-07 05:20 | 24.59177 | 73.92899 | 40898 ft | 556 kts | 131° |
| 2026-05-07 05:20 | 24.54424 | 73.99614 | 40895 ft | 557 kts | 128° |
| 2026-05-07 05:21 | 24.47549 | 74.09940 | 40901 ft | 559 kts | 128° |
| 2026-05-07 05:22 | 24.42940 | 74.16811 | 40901 ft | 559 kts | 128° |
| 2026-05-07 05:22 | 24.38304 | 74.23663 | 40906 ft | 559 kts | 128° |
| 2026-05-07 05:23 | 24.33661 | 74.30499 | 40906 ft | 559 kts | 128° |
| 2026-05-07 05:23 | 24.29012 | 74.37335 | 40915 ft | 559 kts | 128° |
| 2026-05-07 05:24 | 24.24393 | 74.44121 | 40910 ft | 559 kts | 128° |
| 2026-05-07 05:24 | 24.19747 | 74.50940 | 40907 ft | 558 kts | 128° |
| 2026-05-07 05:25 | 24.15106 | 74.57741 | 40915 ft | 557 kts | 128° |
| 2026-05-07 05:25 | 24.10473 | 74.64520 | 40912 ft | 557 kts | 128° |
| 2026-05-07 05:26 | 24.05815 | 74.71299 | 40908 ft | 556 kts | 130° |
| 2026-05-07 05:26 | 24.00266 | 74.77079 | 40910 ft | 550 kts | 145° |
| 2026-05-07 05:27 | 23.94133 | 74.82072 | 40908 ft | 549 kts | 147° |
| 2026-05-07 05:27 | 23.87927 | 74.86912 | 40911 ft | 546 kts | 148° |
| 2026-05-07 05:28 | 23.81746 | 74.91732 | 40913 ft | 546 kts | 147° |
| 2026-05-07 05:28 | 23.75586 | 74.96563 | 40916 ft | 545 kts | 147° |
| 2026-05-07 05:29 | 23.69460 | 75.01377 | 40916 ft | 545 kts | 147° |
| 2026-05-07 05:29 | 23.63304 | 75.06211 | 40919 ft | 545 kts | 147° |
| 2026-05-07 05:30 | 23.57162 | 75.11028 | 40917 ft | 543 kts | 147° |
| 2026-05-07 05:30 | 23.51024 | 75.15835 | 40925 ft | 543 kts | 147° |
| 2026-05-07 05:31 | 23.44887 | 75.20634 | 40926 ft | 543 kts | 147° |
| 2026-05-07 05:31 | 23.38746 | 75.25432 | 40928 ft | 543 kts | 147° |
| 2026-05-07 05:32 | 23.32615 | 75.30216 | 40927 ft | 542 kts | 147° |
| 2026-05-07 05:32 | 23.26492 | 75.34989 | 40936 ft | 540 kts | 147° |
| 2026-05-07 05:33 | 23.20382 | 75.39745 | 40932 ft | 540 kts | 147° |
| 2026-05-07 05:33 | 23.14273 | 75.44495 | 40939 ft | 540 kts | 147° |
| 2026-05-07 05:34 | 23.08157 | 75.49246 | 40940 ft | 540 kts | 147° |
| 2026-05-07 05:34 | 23.02052 | 75.53983 | 40937 ft | 538 kts | 147° |
| 2026-05-07 05:35 | 22.95965 | 75.58700 | 40947 ft | 537 kts | 147° |
| 2026-05-07 05:35 | 22.89926 | 75.63375 | 40950 ft | 537 kts | 148° |
| 2026-05-07 05:36 | 22.83849 | 75.68073 | 40958 ft | 536 kts | 148° |
| 2026-05-07 05:36 | 22.77773 | 75.72766 | 40921 ft | 536 kts | 148° |
| 2026-05-07 05:37 | 22.71590 | 75.77234 | 40940 ft | 531 kts | 156° |
| 2026-05-07 05:37 | 22.64793 | 75.80155 | 40938 ft | 524 kts | 165° |
| 2026-05-07 05:38 | 22.57858 | 75.82572 | 40938 ft | 523 kts | 167° |
| 2026-05-07 05:38 | 22.50905 | 75.84910 | 40939 ft | 523 kts | 167° |
| 2026-05-07 05:39 | 22.43953 | 75.87266 | 40933 ft | 523 kts | 166° |
| 2026-05-07 05:39 | 22.37013 | 75.89642 | 40937 ft | 522 kts | 166° |
| 2026-05-07 05:40 | 22.30079 | 75.92017 | 40929 ft | 522 kts | 166° |
| 2026-05-07 05:40 | 22.23149 | 75.94389 | 40925 ft | 522 kts | 166° |
| 2026-05-07 05:41 | 22.16220 | 75.96758 | 40900 ft | 522 kts | 166° |
| 2026-05-07 05:41 | 22.09353 | 75.99105 | 40917 ft | 520 kts | 166° |
| 2026-05-07 05:42 | 22.02629 | 76.02072 | 40917 ft | 523 kts | 159° |
| 2026-05-07 05:42 | 21.95994 | 76.05331 | 40913 ft | 524 kts | 159° |
| 2026-05-07 05:43 | 21.89379 | 76.08632 | 40913 ft | 524 kts | 159° |
| 2026-05-07 05:43 | 21.82764 | 76.11922 | 40909 ft | 523 kts | 159° |
| 2026-05-07 05:44 | 21.76155 | 76.15195 | 40912 ft | 521 kts | 159° |
| 2026-05-07 05:44 | 21.69562 | 76.18450 | 40915 ft | 521 kts | 159° |
| 2026-05-07 05:45 | 21.62971 | 76.21701 | 40919 ft | 521 kts | 159° |
| 2026-05-07 05:45 | 21.56385 | 76.24947 | 40898 ft | 521 kts | 159° |
| 2026-05-07 05:46 | 21.49799 | 76.28190 | 40911 ft | 521 kts | 159° |
| 2026-05-07 05:46 | 21.43211 | 76.31437 | 40913 ft | 521 kts | 159° |
| 2026-05-07 05:47 | 21.36621 | 76.34677 | 40903 ft | 521 kts | 159° |
| 2026-05-07 05:47 | 21.30065 | 76.37892 | 40903 ft | 521 kts | 159° |
| 2026-05-07 05:48 | 21.23474 | 76.41124 | 40885 ft | 520 kts | 159° |
| 2026-05-07 05:48 | 21.16894 | 76.44349 | 40901 ft | 520 kts | 159° |
| 2026-05-07 05:49 | 21.10318 | 76.47568 | 40893 ft | 519 kts | 159° |
| 2026-05-07 05:49 | 21.03739 | 76.50787 | 40905 ft | 519 kts | 159° |
| 2026-05-07 05:50 | 20.97167 | 76.53998 | 40895 ft | 519 kts | 159° |
| 2026-05-07 05:50 | 20.90603 | 76.57203 | 40886 ft | 519 kts | 159° |
| 2026-05-07 05:51 | 20.84034 | 76.60407 | 40885 ft | 518 kts | 159° |
| 2026-05-07 05:51 | 20.77469 | 76.63606 | 40884 ft | 518 kts | 159° |
| 2026-05-07 05:52 | 20.70909 | 76.66799 | 40877 ft | 518 kts | 159° |
| 2026-05-07 05:52 | 20.64380 | 76.69974 | 40877 ft | 518 kts | 159° |
| 2026-05-07 05:53 | 20.57817 | 76.73163 | 40880 ft | 518 kts | 159° |
| 2026-05-07 05:53 | 20.51258 | 76.76347 | 40882 ft | 517 kts | 159° |
| 2026-05-07 05:54 | 20.44698 | 76.79529 | 40882 ft | 517 kts | 159° |
| 2026-05-07 05:54 | 20.38148 | 76.82702 | 40882 ft | 517 kts | 159° |
| 2026-05-07 05:55 | 20.31581 | 76.85830 | 40887 ft | 517 kts | 160° |
| 2026-05-07 05:55 | 20.24990 | 76.88869 | 40890 ft | 515 kts | 160° |
| 2026-05-07 05:56 | 20.18456 | 76.91877 | 40898 ft | 515 kts | 160° |
| 2026-05-07 05:56 | 20.11888 | 76.94914 | 40898 ft | 515 kts | 160° |
| 2026-05-07 05:57 | 20.05320 | 76.97956 | 40902 ft | 515 kts | 160° |
| 2026-05-07 05:57 | 19.98751 | 77.00997 | 40887 ft | 515 kts | 159° |
| 2026-05-07 05:58 | 19.92195 | 77.04031 | 40902 ft | 513 kts | 159° |
| 2026-05-07 05:58 | 19.85656 | 77.07051 | 40899 ft | 512 kts | 159° |
| 2026-05-07 05:59 | 19.79123 | 77.10067 | 40903 ft | 512 kts | 159° |
| 2026-05-07 05:59 | 19.72590 | 77.13079 | 40901 ft | 512 kts | 159° |
| 2026-05-07 06:00 | 19.66100 | 77.16068 | 40892 ft | 511 kts | 159° |
| 2026-05-07 06:00 | 19.59584 | 77.19069 | 40896 ft | 509 kts | 159° |
| 2026-05-07 06:01 | 19.53085 | 77.22058 | 40895 ft | 509 kts | 159° |
| 2026-05-07 06:01 | 19.46585 | 77.25045 | 40903 ft | 509 kts | 159° |
| 2026-05-07 06:02 | 19.41194 | 77.27524 | 40905 ft | 508 kts | 159° |
| 2026-05-07 06:02 | 19.34693 | 77.30503 | 40901 ft | 508 kts | 159° |
| 2026-05-07 06:03 | 19.28203 | 77.33470 | 40909 ft | 507 kts | 159° |
| 2026-05-07 06:03 | 19.21722 | 77.36433 | 40909 ft | 507 kts | 159° |
| 2026-05-07 06:04 | 19.15245 | 77.39393 | 40909 ft | 507 kts | 159° |
| 2026-05-07 06:04 | 19.08762 | 77.42353 | 40912 ft | 507 kts | 159° |
| 2026-05-07 06:05 | 19.02317 | 77.45294 | 40904 ft | 507 kts | 160° |
| 2026-05-07 06:05 | 18.95860 | 77.48320 | 40913 ft | 508 kts | 157° |
| 2026-05-07 06:06 | 18.89554 | 77.51740 | 40912 ft | 509 kts | 155° |
| 2026-05-07 06:06 | 18.83283 | 77.55229 | 40923 ft | 509 kts | 155° |
| 2026-05-07 06:07 | 18.76986 | 77.58664 | 40922 ft | 509 kts | 156° |
| 2026-05-07 06:07 | 18.70677 | 77.62059 | 40920 ft | 509 kts | 156° |
| 2026-05-07 06:08 | 18.64366 | 77.65440 | 40921 ft | 508 kts | 156° |
| 2026-05-07 06:08 | 18.58058 | 77.68818 | 40934 ft | 508 kts | 156° |
| 2026-05-07 06:09 | 18.51752 | 77.72194 | 40931 ft | 508 kts | 156° |
| 2026-05-07 06:09 | 18.45447 | 77.75568 | 40930 ft | 508 kts | 156° |
| 2026-05-07 06:10 | 18.39143 | 77.78939 | 40930 ft | 508 kts | 156° |
| 2026-05-07 06:10 | 18.32876 | 77.82287 | 40937 ft | 508 kts | 156° |
| 2026-05-07 06:11 | 18.26566 | 77.85655 | 40931 ft | 508 kts | 156° |
| 2026-05-07 06:11 | 18.20255 | 77.89020 | 40934 ft | 508 kts | 156° |
| 2026-05-07 06:12 | 18.13945 | 77.92383 | 40934 ft | 508 kts | 156° |
| 2026-05-07 06:12 | 18.07635 | 77.95743 | 40929 ft | 508 kts | 156° |
| 2026-05-07 06:13 | 18.01322 | 77.99102 | 40944 ft | 508 kts | 156° |
| 2026-05-07 06:13 | 17.95017 | 78.02454 | 40945 ft | 508 kts | 156° |
| 2026-05-07 06:14 | 17.88714 | 78.05802 | 40944 ft | 508 kts | 156° |
| 2026-05-07 06:14 | 17.82402 | 78.09152 | 40941 ft | 508 kts | 156° |
| 2026-05-07 06:15 | 17.76093 | 78.12498 | 40950 ft | 508 kts | 156° |
| 2026-05-07 06:15 | 17.69830 | 78.15817 | 40947 ft | 507 kts | 156° |
| 2026-05-07 06:16 | 17.63538 | 78.19149 | 40958 ft | 506 kts | 156° |
| 2026-05-07 06:16 | 17.57255 | 78.22473 | 40971 ft | 505 kts | 156° |
| 2026-05-07 06:17 | 17.50974 | 78.25794 | 40981 ft | 506 kts | 156° |
| 2026-05-07 06:17 | 17.44694 | 78.29111 | 40984 ft | 506 kts | 156° |
| 2026-05-07 06:18 | 17.38405 | 78.32430 | 40981 ft | 505 kts | 155° |
| 2026-05-07 06:18 | 17.32138 | 78.35736 | 40985 ft | 504 kts | 155° |
| 2026-05-07 06:19 | 17.25855 | 78.38992 | 41004 ft | 502 kts | 159° |
| 2026-05-07 06:19 | 17.19177 | 78.40926 | 41002 ft | 497 kts | 174° |
| 2026-05-07 06:20 | 17.12321 | 78.41807 | 41003 ft | 496 kts | 176° |
| 2026-05-07 06:20 | 17.05447 | 78.42506 | 40987 ft | 496 kts | 176° |
| 2026-05-07 06:21 | 16.98631 | 78.43196 | 40976 ft | 495 kts | 176° |
| 2026-05-07 06:21 | 16.91786 | 78.43915 | 40966 ft | 494 kts | 176° |
| 2026-05-07 06:22 | 16.84940 | 78.44647 | 40959 ft | 494 kts | 176° |
| 2026-05-07 06:22 | 16.74673 | 78.45747 | 40944 ft | 494 kts | 176° |
| 2026-05-07 06:23 | 16.67830 | 78.46478 | 40947 ft | 494 kts | 176° |
| 2026-05-07 06:23 | 16.60995 | 78.47208 | 40947 ft | 494 kts | 176° |
| 2026-05-07 06:24 | 16.54149 | 78.47938 | 40948 ft | 494 kts | 176° |
| 2026-05-07 06:24 | 16.47318 | 78.48666 | 40932 ft | 494 kts | 176° |
| 2026-05-07 06:25 | 16.40479 | 78.49394 | 40933 ft | 494 kts | 176° |
| 2026-05-07 06:25 | 16.33641 | 78.50122 | 40940 ft | 494 kts | 176° |
| 2026-05-07 06:26 | 16.26851 | 78.50844 | 40934 ft | 494 kts | 176° |
| 2026-05-07 06:26 | 16.20013 | 78.51158 | 40933 ft | 491 kts | 186° |
| 2026-05-07 06:27 | 16.13241 | 78.50294 | 40924 ft | 490 kts | 190° |
| 2026-05-07 06:27 | 16.06505 | 78.49206 | 40923 ft | 490 kts | 191° |
| 2026-05-07 06:28 | 15.99763 | 78.48087 | 40916 ft | 490 kts | 190° |
| 2026-05-07 06:28 | 15.93024 | 78.46990 | 40917 ft | 490 kts | 190° |
| 2026-05-07 06:29 | 15.86284 | 78.45907 | 40911 ft | 490 kts | 190° |
| 2026-05-07 06:29 | 15.79545 | 78.44829 | 40911 ft | 490 kts | 190° |
| 2026-05-07 06:30 | 15.72855 | 78.43759 | 40907 ft | 490 kts | 190° |
| 2026-05-07 06:30 | 15.66119 | 78.42682 | 40908 ft | 490 kts | 190° |
| 2026-05-07 06:31 | 15.59384 | 78.41605 | 40899 ft | 490 kts | 190° |
| 2026-05-07 06:31 | 15.52644 | 78.40528 | 40899 ft | 490 kts | 189° |
| 2026-05-07 06:32 | 15.45907 | 78.39452 | 40891 ft | 490 kts | 189° |
| 2026-05-07 06:32 | 15.39167 | 78.38377 | 40891 ft | 490 kts | 189° |
| 2026-05-07 06:33 | 15.32432 | 78.37303 | 40877 ft | 490 kts | 189° |
| 2026-05-07 06:33 | 15.25683 | 78.36227 | 40885 ft | 490 kts | 189° |
| 2026-05-07 06:34 | 15.18929 | 78.35156 | 40881 ft | 491 kts | 189° |
| 2026-05-07 06:34 | 15.12186 | 78.34074 | 40878 ft | 491 kts | 189° |
| 2026-05-07 06:35 | 15.05440 | 78.32988 | 40883 ft | 491 kts | 189° |
| 2026-05-07 06:35 | 14.98727 | 78.31911 | 40883 ft | 491 kts | 189° |
| 2026-05-07 06:36 | 14.91978 | 78.30831 | 40881 ft | 491 kts | 189° |
| 2026-05-07 06:36 | 14.85234 | 78.29754 | 40880 ft | 491 kts | 189° |
| 2026-05-07 06:37 | 14.78479 | 78.28677 | 40880 ft | 490 kts | 189° |
| 2026-05-07 06:37 | 14.71738 | 78.27594 | 40881 ft | 490 kts | 189° |
| 2026-05-07 06:38 | 14.64992 | 78.26511 | 40882 ft | 491 kts | 189° |
| 2026-05-07 06:38 | 14.58236 | 78.25429 | 40886 ft | 492 kts | 189° |
| 2026-05-07 06:39 | 14.51465 | 78.24345 | 40902 ft | 493 kts | 189° |
| 2026-05-07 06:39 | 14.44681 | 78.23260 | 40904 ft | 493 kts | 189° |
| 2026-05-07 06:40 | 14.37906 | 78.22177 | 40808 ft | 492 kts | 189° |
| 2026-05-07 06:40 | 14.34520 | 78.21636 | 40580 ft | 493 kts | 189° |
| 2026-05-07 06:40 | 14.31129 | 78.21094 | 40335 ft | 494 kts | 189° |
| 2026-05-07 06:41 | 14.27723 | 78.20550 | 40092 ft | 496 kts | 189° |
| 2026-05-07 06:41 | 14.24310 | 78.20005 | 39842 ft | 496 kts | 189° |
| 2026-05-07 06:41 | 14.20892 | 78.19460 | 39581 ft | 495 kts | 189° |
| 2026-05-07 06:41 | 14.17517 | 78.18869 | 38875 ft | 489 kts | 193° |
| 2026-05-07 06:42 | 14.14282 | 78.17821 | 37411 ft | 488 kts | 203° |
| 2026-05-07 06:42 | 14.11198 | 78.16401 | 35684 ft | 495 kts | 205° |
| 2026-05-07 06:42 | 14.08071 | 78.14877 | 34035 ft | 500 kts | 205° |
| 2026-05-07 06:42 | 14.04905 | 78.13336 | 32590 ft | 508 kts | 205° |
| 2026-05-07 06:43 | 14.01695 | 78.11784 | 32134 ft | 509 kts | 205° |
| 2026-05-07 06:43 | 13.98493 | 78.10240 | 31765 ft | 509 kts | 205° |
| 2026-05-07 06:43 | 13.95312 | 78.08712 | 31305 ft | 495 kts | 205° |
| 2026-05-07 06:43 | 13.92233 | 78.07234 | 31070 ft | 486 kts | 205° |
| 2026-05-07 06:44 | 13.89180 | 78.05770 | 30836 ft | 482 kts | 205° |
| 2026-05-07 06:44 | 13.86143 | 78.04315 | 30604 ft | 480 kts | 205° |
| 2026-05-07 06:44 | 13.83112 | 78.02864 | 30382 ft | 481 kts | 205° |
| 2026-05-07 06:44 | 13.80075 | 78.01411 | 30159 ft | 483 kts | 205° |
| 2026-05-07 06:45 | 13.77015 | 77.99947 | 29926 ft | 484 kts | 205° |
| 2026-05-07 06:45 | 13.73960 | 77.98486 | 29662 ft | 485 kts | 205° |
| 2026-05-07 06:45 | 13.70894 | 77.97021 | 29404 ft | 486 kts | 205° |
| 2026-05-07 06:45 | 13.67826 | 77.95554 | 29151 ft | 487 kts | 205° |
| 2026-05-07 06:46 | 13.64747 | 77.94084 | 28889 ft | 488 kts | 205° |
| 2026-05-07 06:46 | 13.61698 | 77.92552 | 28681 ft | 488 kts | 210° |
| 2026-05-07 06:46 | 13.58834 | 77.90700 | 28466 ft | 487 kts | 213° |
| 2026-05-07 06:46 | 13.55994 | 77.88805 | 28242 ft | 486 kts | 213° |
| 2026-05-07 06:47 | 13.53190 | 77.86958 | 27891 ft | 483 kts | 212° |
| 2026-05-07 06:47 | 13.50349 | 77.85126 | 27510 ft | 481 kts | 212° |
| 2026-05-07 06:47 | 13.47502 | 77.83337 | 27139 ft | 478 kts | 211° |
| 2026-05-07 06:47 | 13.44644 | 77.81595 | 26788 ft | 476 kts | 210° |
| 2026-05-07 06:48 | 13.41780 | 77.79904 | 26415 ft | 474 kts | 209° |
| 2026-05-07 06:48 | 13.38901 | 77.78259 | 26027 ft | 472 kts | 208° |
| 2026-05-07 06:48 | 13.36017 | 77.76666 | 25692 ft | 470 kts | 208° |
| 2026-05-07 06:48 | 13.33175 | 77.75013 | 25420 ft | 468 kts | 212° |
| 2026-05-07 06:49 | 13.30651 | 77.72931 | 25102 ft | 466 kts | 225° |
| 2026-05-07 06:49 | 13.28781 | 77.70243 | 24599 ft | 463 kts | 247° |
| 2026-05-07 06:49 | 13.28181 | 77.68141 | 24283 ft | 459 kts | 262° |
| 2026-05-07 06:49 | 13.28396 | 77.63805 | 23762 ft | 456 kts | 279° |
| 2026-05-07 06:50 | 13.28745 | 77.61684 | 23445 ft | 455 kts | 282° |
| 2026-05-07 06:50 | 13.29424 | 77.58527 | 23061 ft | 451 kts | 282° |
| 2026-05-07 06:50 | 13.29906 | 77.55353 | 22778 ft | 449 kts | 279° |
| 2026-05-07 06:50 | 13.30349 | 77.52183 | 22351 ft | 446 kts | 279° |
| 2026-05-07 06:51 | 13.30927 | 77.48031 | 21790 ft | 439 kts | 279° |
| 2026-05-07 06:51 | 13.31234 | 77.45952 | 21504 ft | 432 kts | 281° |
| 2026-05-07 06:51 | 13.32043 | 77.43026 | 21092 ft | 422 kts | 294° |
| 2026-05-07 06:51 | 13.33559 | 77.40500 | 20654 ft | 412 kts | 311° |
| 2026-05-07 06:52 | 13.35732 | 77.38646 | 20231 ft | 404 kts | 330° |
| 2026-05-07 06:52 | 13.38336 | 77.37667 | 19810 ft | 397 kts | 350° |
| 2026-05-07 06:52 | 13.41062 | 77.37672 | 19407 ft | 391 kts | 10° |
| 2026-05-07 06:52 | 13.43545 | 77.38633 | 18996 ft | 386 kts | 31° |
| 2026-05-07 06:53 | 13.45525 | 77.40446 | 18605 ft | 381 kts | 52° |
| 2026-05-07 06:53 | 13.46699 | 77.42856 | 18201 ft | 377 kts | 75° |
| 2026-05-07 06:53 | 13.46956 | 77.45505 | 17736 ft | 372 kts | 94° |
| 2026-05-07 06:53 | 13.46518 | 77.48095 | 17298 ft | 365 kts | 105° |
| 2026-05-07 06:54 | 13.45769 | 77.50524 | 16827 ft | 347 kts | 111° |
| 2026-05-07 06:54 | 13.44773 | 77.52715 | 16395 ft | 331 kts | 118° |
| 2026-05-07 06:54 | 13.43613 | 77.54697 | 15948 ft | 316 kts | 123° |
| 2026-05-07 06:54 | 13.42420 | 77.56541 | 15517 ft | 303 kts | 124° |
| 2026-05-07 06:55 | 13.40994 | 77.58048 | 15084 ft | 290 kts | 148° |
| 2026-05-07 06:55 | 13.39168 | 77.58842 | 14675 ft | 284 kts | 165° |
| 2026-05-07 06:55 | 13.37226 | 77.59239 | 14262 ft | 284 kts | 171° |
| 2026-05-07 06:55 | 13.35284 | 77.59381 | 13881 ft | 276 kts | 181° |
| 2026-05-07 06:56 | 13.33435 | 77.58979 | 13418 ft | 269 kts | 203° |
| 2026-05-07 06:56 | 13.31877 | 77.57924 | 12984 ft | 271 kts | 223° |
| 2026-05-07 06:56 | 13.30695 | 77.56416 | 12540 ft | 273 kts | 243° |
| 2026-05-07 06:56 | 13.30188 | 77.54549 | 12100 ft | 273 kts | 264° |
| 2026-05-07 06:57 | 13.30060 | 77.52616 | 11669 ft | 272 kts | 268° |
| 2026-05-07 06:57 | 13.29994 | 77.50689 | 11242 ft | 275 kts | 269° |
| 2026-05-07 06:57 | 13.29933 | 77.48721 | 10821 ft | 277 kts | 269° |
| 2026-05-07 06:57 | 13.29871 | 77.46747 | 10407 ft | 279 kts | 269° |
| 2026-05-07 06:58 | 13.29776 | 77.44771 | 9974 ft | 273 kts | 264° |
| 2026-05-07 06:58 | 13.29126 | 77.42966 | 9512 ft | 264 kts | 234° |
| 2026-05-07 06:58 | 13.27790 | 77.41749 | 9071 ft | 254 kts | 205° |
| 2026-05-07 06:58 | 13.26161 | 77.41369 | 8663 ft | 239 kts | 175° |
| 2026-05-07 06:59 | 13.24629 | 77.41867 | 8234 ft | 230 kts | 144° |
| 2026-05-07 06:59 | 13.23560 | 77.43028 | 7807 ft | 226 kts | 123° |
| 2026-05-07 06:59 | 13.22719 | 77.44413 | 7382 ft | 225 kts | 119° |
| 2026-05-07 06:59 | 13.22028 | 77.45633 | 7013 ft | 224 kts | 119° |
| 2026-05-07 07:00 | 13.21295 | 77.46994 | 6592 ft | 222 kts | 114° |
| 2026-05-07 07:00 | 13.20904 | 77.48514 | 6208 ft | 221 kts | 96° |
| 2026-05-07 07:00 | 13.20854 | 77.50097 | 5998 ft | 222 kts | 90° |
| 2026-05-07 07:00 | 13.20854 | 77.51687 | 5978 ft | 223 kts | 91° |
| 2026-05-07 07:01 | 13.20846 | 77.53273 | 5981 ft | 221 kts | 91° |
| 2026-05-07 07:01 | 13.20835 | 77.54847 | 5977 ft | 221 kts | 91° |
| 2026-05-07 07:01 | 13.20822 | 77.56413 | 5730 ft | 216 kts | 91° |
| 2026-05-07 07:01 | 13.20809 | 77.57932 | 5239 ft | 212 kts | 90° |
| 2026-05-07 07:02 | 13.20795 | 77.59448 | 4755 ft | 210 kts | 91° |
| 2026-05-07 07:02 | 13.20782 | 77.60882 | 4502 ft | 192 kts | 91° |
| 2026-05-07 07:02 | 13.20772 | 77.62192 | 4267 ft | 176 kts | 92° |
| 2026-05-07 07:02 | 13.20761 | 77.63412 | 4056 ft | 167 kts | 91° |
| 2026-05-07 07:03 | 13.20751 | 77.64549 | 3847 ft | 152 kts | 91° |
| 2026-05-07 07:03 | 13.20742 | 77.65594 | 3646 ft | 141 kts | 92° |
| 2026-05-07 07:03 | 13.20734 | 77.66578 | 3470 ft | 136 kts | 93° |
| 2026-05-07 07:03 | 13.20723 | 77.67540 | 3268 ft | 136 kts | 93° |
| 2026-05-07 07:04 | 13.20723 | 77.68508 | 3088 ft | 137 kts | 92° |
| 2026-05-07 07:04 | 13.20709 | 77.69458 | 3023 ft | 120 kts | 90° |
| 2026-05-07 07:04 | 13.20704 | 77.70067 | 3025 ft | 62 kts | 91° |
| 2026-05-07 07:04 | 13.20699 | 77.70380 | 3017 ft | 30 kts | 96° |
| 2026-05-07 07:05 | 13.20628 | 77.70572 | 3017 ft | 23 kts | 120° |
| 2026-05-07 07:05 | 13.20617 | 77.70591 | 3020 ft | 1 kts | 121° |
| 2026-05-07 07:05 | 13.20607 | 77.70609 | 3023 ft | 6 kts | 121° |
| 2026-05-07 07:05 | 13.20572 | 77.70629 | 3023 ft | 5 kts | 168° |
| 2026-05-07 07:06 | 13.20545 | 77.70618 | 3023 ft | 5 kts | 221° |
| 2026-05-07 07:06 | 13.20535 | 77.70588 | 3017 ft | 6 kts | 255° |
| 2026-05-07 07:06 | 13.20532 | 77.70534 | 3020 ft | 7 kts | 270° |
| 2026-05-07 07:06 | 13.20532 | 77.70532 | 3017 ft | 0 kts | 270° |